createdAt,value
2023-04-20T09:16:15.052Z,1015.11
2023-04-20T09:17:14.931Z,1015.18
2023-04-20T09:18:14.805Z,1015.17
2023-04-20T09:19:14.819Z,1015.21
2023-04-20T09:20:14.826Z,1015.20
2023-04-20T09:22:12.427Z,1015.27
2023-04-20T09:23:12.428Z,1015.22
2023-04-20T09:24:12.427Z,1015.13
2023-04-20T09:25:12.435Z,1015.13
2023-04-20T09:26:12.475Z,1015.11
2023-04-20T09:27:12.472Z,1015.02
2023-04-20T09:28:12.484Z,1015.03
2023-04-20T09:29:12.485Z,1015.02
2023-04-20T09:30:12.505Z,1015.04
2023-04-20T09:31:14.614Z,1015.12
2023-04-20T10:19:24.800Z,1014.77
2023-04-20T10:20:24.771Z,1014.68
2023-04-20T10:25:23.312Z,1014.66
2023-04-20T10:27:48.535Z,1014.69
2023-04-20T11:22:54.831Z,1014.48
2023-04-20T11:23:53.010Z,1014.47
2023-04-20T11:24:53.025Z,1014.56
2023-04-20T11:25:53.025Z,1014.48
2023-04-20T11:26:53.050Z,1014.45
2023-04-20T11:27:53.054Z,1014.44
2023-04-20T11:28:55.152Z,1014.47
2023-04-20T11:29:53.069Z,1014.44
2023-04-20T11:30:53.081Z,1014.42
2023-04-20T11:31:53.251Z,1014.43
2023-04-20T11:32:53.168Z,1014.41
2023-04-20T11:33:53.172Z,1014.42
2023-04-20T11:34:56.103Z,1014.46
2023-04-20T11:35:53.131Z,1014.48
2023-04-20T11:36:53.148Z,1014.42
2023-04-20T11:37:53.159Z,1014.38
2023-04-20T11:38:53.183Z,1014.40
2023-04-20T11:39:53.178Z,1014.36
2023-04-20T11:40:53.184Z,1014.40
2023-04-20T11:41:53.195Z,1014.44
2023-04-20T11:42:53.196Z,1014.50
2023-04-20T11:43:53.224Z,1014.48
2023-04-20T11:44:53.219Z,1014.51
